Time;durP1;ratioP1;P1;durP2;ratioP2;P2;SDS_P1;SDS_P2;PMS_P1;PMS_P2;Temp;Humidity;BMP_temperature;BMP_pressure;BME280_temperature;BME280_humidity;BME280_pressure;Samples;Min_cycle;Max_cycle;Signal;HPM_P1;HPM_P2
2022/05/04 00:00:44;;;;;;;4.13;3.72;;;7.30;99.90;;;;;;4969889;28;20475;-78
2022/05/04 00:03:11;;;;;;;4.80;3.53;;;7.30;99.90;;;;;;4968603;28;20034;-78
2022/05/04 00:05:37;;;;;;;4.88;3.67;;;7.40;99.90;;;;;;4969931;28;20094;-78
2022/05/04 00:08:02;;;;;;;3.65;3.30;;;7.40;99.90;;;;;;4969567;28;20027;-78
2022/05/04 00:10:30;;;;;;;3.88;3.38;;;7.40;99.90;;;;;;4967797;28;20030;-78
2022/05/04 00:12:57;;;;;;;3.58;3.13;;;7.20;99.90;;;;;;4979942;28;20195;-78
2022/05/04 00:15:23;;;;;;;4.68;4.00;;;7.10;99.90;;;;;;4988433;28;20022;-77
2022/05/04 00:17:49;;;;;;;4.63;4.15;;;7.10;99.90;;;;;;4987162;28;20143;-78
2022/05/04 00:20:14;;;;;;;6.45;4.13;;;7.10;99.90;;;;;;4987841;28;20495;-78
2022/05/04 00:22:43;;;;;;;4.97;3.70;;;7.20;99.90;;;;;;4986828;28;20113;-78
2022/05/04 00:25:10;;;;;;;5.30;4.38;;;7.10;99.90;;;;;;4988468;28;20031;-78
2022/05/04 00:27:36;;;;;;;4.05;3.50;;;7.20;99.90;;;;;;4989727;28;20510;-77
2022/05/04 00:30:03;;;;;;;5.10;3.42;;;7.20;99.90;;;;;;4989186;28;20026;-78
2022/05/04 00:32:29;;;;;;;7.60;3.88;;;7.20;99.90;;;;;;4988545;28;20036;-78
2022/05/04 00:34:55;;;;;;;4.82;3.70;;;7.10;99.90;;;;;;4988267;28;20030;-78
2022/05/04 00:37:20;;;;;;;6.53;3.85;;;7.00;99.90;;;;;;4988965;28;20076;-78
2022/05/04 00:39:47;;;;;;;3.40;3.10;;;7.00;99.90;;;;;;4988251;28;20452;-78
2022/05/04 00:42:19;;;;;;;5.28;3.40;;;7.00;99.90;;;;;;4988559;28;20495;-78
2022/05/04 00:44:47;;;;;;;6.32;3.88;;;7.10;99.90;;;;;;4986775;28;20117;-78
2022/05/04 00:47:13;;;;;;;4.50;3.97;;;7.10;99.90;;;;;;4986873;28;20140;-78
2022/05/04 00:49:41;;;;;;;4.78;3.70;;;7.10;99.90;;;;;;4987155;28;20113;-78
2022/05/04 00:52:09;;;;;;;3.95;3.20;;;7.10;99.90;;;;;;4987893;28;20290;-77
2022/05/04 00:54:36;;;;;;;3.75;3.45;;;7.00;99.90;;;;;;4991839;28;20077;-78
2022/05/04 00:57:04;;;;;;;5.53;3.78;;;7.00;99.90;;;;;;4991373;28;20022;-78
2022/05/04 00:59:31;;;;;;;3.83;3.33;;;7.00;99.90;;;;;;4991040;28;20034;-78
2022/05/04 01:01:58;;;;;;;4.97;3.95;;;7.00;99.90;;;;;;4992922;28;20027;-78
2022/05/04 01:04:25;;;;;;;5.05;3.78;;;7.00;99.90;;;;;;4991300;28;20031;-78
2022/05/04 01:06:50;;;;;;;4.82;3.92;;;6.90;99.90;;;;;;4992670;28;20034;-78
2022/05/04 01:09:16;;;;;;;4.63;3.42;;;6.90;99.90;;;;;;4992833;28;20061;-78
2022/05/04 01:11:43;;;;;;;4.97;3.67;;;6.80;99.90;;;;;;5006044;28;20054;-77
2022/05/04 01:14:11;;;;;;;4.57;3.75;;;6.90;99.90;;;;;;4972922;28;20027;-78
2022/05/04 01:16:39;;;;;;;5.45;4.15;;;6.90;99.90;;;;;;4971965;28;20023;-78
2022/05/04 01:19:06;;;;;;;5.65;3.95;;;6.90;99.90;;;;;;4970694;28;20035;-78
2022/05/04 01:21:33;;;;;;;6.50;4.40;;;7.00;99.90;;;;;;4971027;28;20709;-78
2022/05/04 01:23:59;;;;;;;8.48;3.97;;;7.10;99.90;;;;;;4973116;28;20122;-78
2022/05/04 01:26:25;;;;;;;5.10;3.97;;;7.20;99.90;;;;;;4971977;28;20150;-78
2022/05/04 01:28:51;;;;;;;7.65;3.78;;;7.10;99.90;;;;;;4972457;28;20023;-78
2022/05/04 01:31:18;;;;;;;4.53;3.72;;;7.10;99.90;;;;;;4973680;28;20025;-78
2022/05/04 01:33:44;;;;;;;5.18;3.35;;;7.10;99.90;;;;;;4973810;28;20026;-78
2022/05/04 01:36:09;;;;;;;5.18;3.90;;;7.10;99.90;;;;;;4973164;28;20065;-78
2022/05/04 01:38:37;;;;;;;3.85;3.33;;;7.10;99.90;;;;;;4975400;28;20467;-78
2022/05/04 01:41:03;;;;;;;5.38;3.92;;;7.10;99.90;;;;;;4972944;28;20510;-78
2022/05/04 01:43:29;;;;;;;5.55;4.00;;;7.10;99.90;;;;;;4975435;28;20050;-78
2022/05/04 01:45:56;;;;;;;4.72;4.05;;;7.10;99.90;;;;;;4975434;28;20030;-78
2022/05/04 01:48:22;;;;;;;5.00;3.55;;;7.20;99.90;;;;;;4973342;28;20041;-77
2022/05/04 01:50:48;;;;;;;6.85;4.43;;;7.10;99.90;;;;;;4974926;28;20031;-78
2022/05/04 01:53:14;;;;;;;4.88;3.38;;;7.20;99.90;;;;;;4975251;28;20022;-78
2022/05/04 01:55:44;;;;;;;5.70;3.92;;;7.20;99.90;;;;;;4975088;28;20054;-78
2022/05/04 01:58:11;;;;;;;5.55;4.20;;;7.10;99.90;;;;;;4973616;28;20026;-78
2022/05/04 02:00:38;;;;;;;4.38;3.72;;;7.00;99.90;;;;;;4972086;28;20594;-77
2022/05/04 02:03:04;;;;;;;5.60;3.70;;;7.00;99.90;;;;;;4974716;28;20023;-78
2022/05/04 02:05:30;;;;;;;8.43;3.90;;;6.90;99.90;;;;;;4972962;28;20027;-78
2022/05/04 02:07:55;;;;;;;5.97;3.92;;;6.80;99.90;;;;;;4974714;28;20038;-78
2022/05/04 02:10:22;;;;;;;6.28;4.05;;;6.80;99.90;;;;;;4976032;28;20150;-78
2022/05/04 02:12:47;;;;;;;6.50;4.35;;;6.70;99.90;;;;;;4984804;28;20046;-78
2022/05/04 02:15:13;;;;;;;6.03;4.28;;;6.90;99.90;;;;;;5005557;28;20058;-78
2022/05/04 02:17:39;;;;;;;6.35;3.92;;;6.80;99.90;;;;;;4990295;28;20475;-78
2022/05/04 02:20:05;;;;;;;4.65;4.05;;;6.70;99.90;;;;;;4988918;28;20057;-78
2022/05/04 02:22:31;;;;;;;5.22;3.67;;;6.70;99.90;;;;;;4991343;28;20033;-78
2022/05/04 02:24:57;;;;;;;4.05;3.13;;;6.60;99.90;;;;;;4990931;28;20034;-78
2022/05/04 02:27:23;;;;;;;5.13;4.15;;;6.50;99.90;;;;;;4991159;28;20526;-78
2022/05/04 02:29:48;;;;;;;4.70;3.75;;;6.50;99.90;;;;;;4989956;28;20289;-78
2022/05/04 02:32:14;;;;;;;4.57;3.75;;;6.50;99.90;;;;;;5005301;28;20026;-78
2022/05/04 02:40:30;;;;;;;7.32;4.47;;;6.40;99.90;;;;;;4929221;29;20050;-78
2022/05/04 02:42:55;;;;;;;5.28;4.03;;;6.50;99.90;;;;;;4975648;28;20042;-77
2022/05/04 02:45:21;;;;;;;5.18;4.35;;;6.50;99.90;;;;;;4989617;28;20576;-78
2022/05/04 02:47:47;;;;;;;4.45;4.00;;;6.50;99.90;;;;;;5005479;28;20026;-78
2022/05/04 02:50:13;;;;;;;5.75;3.90;;;6.50;99.90;;;;;;4988923;28;20057;-78
2022/05/04 02:52:38;;;;;;;5.65;4.28;;;6.40;99.90;;;;;;5004654;28;20387;-78
2022/05/04 02:55:05;;;;;;;5.10;3.88;;;6.30;99.90;;;;;;4989837;28;20046;-78
2022/05/04 02:57:31;;;;;;;5.53;4.40;;;6.30;99.90;;;;;;4989024;28;20113;-77
2022/05/04 02:59:56;;;;;;;5.25;3.88;;;6.40;99.90;;;;;;4989654;28;20500;-78
2022/05/04 03:02:28;;;;;;;6.05;4.47;;;6.30;99.90;;;;;;4990454;28;20392;-77
2022/05/04 03:05:02;;;;;;;6.60;4.10;;;6.40;99.90;;;;;;4989713;28;20045;-77
2022/05/04 03:07:28;;;;;;;5.30;3.63;;;6.50;99.90;;;;;;4989530;28;20065;-78
2022/05/04 03:09:55;;;;;;;7.05;4.35;;;6.40;99.90;;;;;;4987639;28;20066;-78
2022/05/04 03:12:21;;;;;;;6.50;4.22;;;6.30;99.90;;;;;;4977782;28;20062;-79
2022/05/04 03:14:47;;;;;;;5.13;3.85;;;6.30;99.90;;;;;;4948859;28;20027;-78
2022/05/04 03:17:13;;;;;;;5.68;4.13;;;6.30;99.90;;;;;;4950333;29;20491;-78
2022/05/04 03:19:38;;;;;;;5.65;4.55;;;6.30;99.90;;;;;;4950108;28;20059;-78
2022/05/04 03:22:05;;;;;;;6.72;4.30;;;6.30;99.90;;;;;;4950562;28;20027;-78
2022/05/04 03:24:31;;;;;;;5.97;4.75;;;6.30;99.90;;;;;;4949031;28;20023;-78
2022/05/04 03:26:56;;;;;;;6.28;4.53;;;6.30;99.90;;;;;;4948348;28;20053;-78
2022/05/04 03:29:22;;;;;;;5.35;3.97;;;8.00;99.90;;;;;;4949315;28;20027;-78
2022/05/04 03:31:48;;;;;;;5.28;3.75;;;6.30;99.90;;;;;;4951171;28;20480;-78
2022/05/04 03:34:14;;;;;;;7.72;4.13;;;6.40;99.90;;;;;;4949763;28;20027;-78
2022/05/04 03:36:39;;;;;;;5.00;4.50;;;6.40;99.90;;;;;;4948937;28;20081;-78
2022/05/04 03:39:07;;;;;;;4.68;3.55;;;6.50;99.90;;;;;;4950155;29;20027;-78
2022/05/04 03:41:33;;;;;;;7.20;3.90;;;6.50;99.90;;;;;;4950443;28;20035;-77
2022/05/04 03:43:59;;;;;;;6.57;4.13;;;6.50;99.90;;;;;;4949815;28;20189;-78
2022/05/04 03:46:27;;;;;;;5.53;4.78;;;6.50;99.90;;;;;;4951064;28;20396;-78
2022/05/04 03:48:58;;;;;;;5.72;4.40;;;6.60;99.90;;;;;;4950316;28;20318;-78
2022/05/04 03:51:24;;;;;;;4.28;3.88;;;6.60;99.90;;;;;;4952283;28;20114;-78
2022/05/04 03:53:52;;;;;;;7.22;4.35;;;6.60;99.90;;;;;;4951941;28;20035;-78
2022/05/04 03:56:18;;;;;;;5.97;4.78;;;6.60;99.90;;;;;;4951028;28;20034;-78
2022/05/04 03:58:45;;;;;;;5.82;4.10;;;6.70;99.90;;;;;;4952455;28;20496;-78
2022/05/04 04:01:11;;;;;;;5.03;4.47;;;6.80;99.90;;;;;;4952237;28;20039;-78
2022/05/04 04:03:38;;;;;;;6.97;4.63;;;6.90;99.90;;;;;;4952315;28;20015;-78
2022/05/04 04:06:05;;;;;;;5.70;4.28;;;6.90;99.90;;;;;;4951424;28;20519;-78
2022/05/04 04:08:30;;;;;;;5.93;4.43;;;6.90;99.90;;;;;;4952549;28;20032;-78
2022/05/04 04:10:57;;;;;;;5.32;4.05;;;6.90;99.90;;;;;;4951937;28;20063;-78
2022/05/04 04:13:22;;;;;;;4.60;4.05;;;6.90;99.90;;;;;;4982629;28;20116;-78
2022/05/04 04:15:51;;;;;;;5.65;4.25;;;7.00;99.90;;;;;;4991008;28;20137;-78
2022/05/04 04:18:18;;;;;;;5.03;3.90;;;7.00;99.90;;;;;;4991399;28;20289;-78
2022/05/04 04:23:29;;;;;;;5.32;3.88;;;7.10;99.90;;;;;;4992608;28;20085;-78
2022/05/04 04:25:54;;;;;;;5.40;4.03;;;7.20;99.90;;;;;;4991121;28;20038;-78
2022/05/04 04:28:20;;;;;;;10.52;4.07;;;7.30;99.90;;;;;;4988615;28;20030;-78
2022/05/04 04:30:47;;;;;;;5.40;4.43;;;7.30;99.90;;;;;;5006436;28;20026;-78
2022/05/04 04:33:12;;;;;;;5.38;4.50;;;7.30;99.90;;;;;;4990621;28;20117;-79
2022/05/04 04:35:38;;;;;;;6.03;5.00;;;7.40;99.90;;;;;;5007499;28;20053;-78
2022/05/04 04:38:04;;;;;;;5.35;4.25;;;7.40;99.90;;;;;;4991668;28;20033;-78
2022/05/04 04:40:30;;;;;;;7.90;4.43;;;7.50;99.90;;;;;;4987977;28;20042;-79
2022/05/04 04:42:55;;;;;;;5.72;4.20;;;7.60;99.90;;;;;;4990883;28;20105;-78
2022/05/04 04:45:21;;;;;;;5.38;3.97;;;7.70;99.90;;;;;;4987941;28;20030;-79
2022/05/04 04:47:48;;;;;;;6.68;5.22;;;7.80;99.90;;;;;;4991314;28;20534;-77
2022/05/04 04:50:14;;;;;;;5.93;5.10;;;7.90;99.90;;;;;;4989951;28;20030;-78
2022/05/04 04:52:40;;;;;;;5.43;4.07;;;7.90;99.90;;;;;;4992274;28;20026;-78
2022/05/04 04:55:22;;;;;;;5.30;4.40;;;8.00;99.90;;;;;;4994194;28;20027;-79
2022/05/04 04:57:48;;;;;;;5.63;3.88;;;8.00;99.90;;;;;;4990041;28;20022;-80
2022/05/04 05:00:14;;;;;;;6.15;4.95;;;8.10;99.90;;;;;;5010468;28;20038;-81
2022/05/04 05:02:41;;;;;;;4.75;3.90;;;8.10;99.90;;;;;;4998275;28;20038;-79
2022/05/04 05:05:07;;;;;;;6.07;5.13;;;8.20;99.90;;;;;;5000031;28;20034;-80
2022/05/04 05:07:32;;;;;;;5.03;4.03;;;8.20;99.90;;;;;;4988697;28;20116;-78
2022/05/04 05:09:58;;;;;;;4.82;4.20;;;8.30;99.90;;;;;;4987889;28;20542;-78
2022/05/04 05:12:24;;;;;;;7.10;4.30;;;8.40;99.90;;;;;;4982812;28;20439;-78
2022/05/04 05:17:51;;;;;;;4.80;3.85;;;8.50;99.90;;;;;;4910693;29;20366;-78
2022/05/04 05:20:18;;;;;;;4.25;3.70;;;8.70;99.90;;;;;;4956878;28;20050;-78
2022/05/04 05:22:43;;;;;;;6.53;4.13;;;8.80;99.90;;;;;;4969493;28;20035;-78
2022/05/04 05:25:09;;;;;;;4.25;3.75;;;8.90;99.90;;;;;;4970501;28;20578;-78
2022/05/04 05:27:35;;;;;;;4.70;3.72;;;8.90;99.90;;;;;;4986404;28;20102;-78
2022/05/04 05:30:02;;;;;;;5.03;4.32;;;8.90;99.90;;;;;;4991128;28;20061;-78
2022/05/04 05:32:28;;;;;;;5.63;4.28;;;9.00;99.90;;;;;;4980492;28;20027;-77
2022/05/04 05:34:53;;;;;;;5.55;3.83;;;9.20;99.90;;;;;;4978906;28;20058;-77
2022/05/04 05:37:22;;;;;;;3.83;3.30;;;9.30;99.90;;;;;;4971508;28;20038;-77
2022/05/04 05:39:48;;;;;;;5.38;3.30;;;9.50;99.90;;;;;;4967441;28;20042;-77
2022/05/04 05:42:14;;;;;;;3.92;3.50;;;9.70;99.90;;;;;;4951371;28;20055;-77
2022/05/04 05:44:40;;;;;;;6.10;3.70;;;9.80;99.90;;;;;;4955070;28;20760;-80
2022/05/04 05:47:06;;;;;;;4.60;4.00;;;9.90;99.90;;;;;;4957066;28;20110;-78
2022/05/04 05:49:32;;;;;;;6.30;3.90;;;10.00;99.90;;;;;;4974044;28;20069;-79
2022/05/04 05:51:58;;;;;;;5.53;3.95;;;10.20;99.90;;;;;;4969987;28;20082;-79
2022/05/04 05:54:24;;;;;;;5.40;4.00;;;10.20;99.90;;;;;;4965360;28;20027;-78
2022/05/04 05:56:51;;;;;;;5.93;4.43;;;10.30;99.90;;;;;;4971179;28;20031;-78
2022/05/04 05:59:16;;;;;;;4.05;3.65;;;10.40;99.90;;;;;;4966262;28;20247;-80
2022/05/04 06:01:42;;;;;;;7.78;4.10;;;10.40;99.90;;;;;;4961587;28;20227;-80
2022/05/04 06:04:10;;;;;;;8.23;4.97;;;10.50;99.90;;;;;;4965812;28;20047;-80
2022/05/04 06:06:37;;;;;;;5.75;3.83;;;10.50;99.90;;;;;;4967316;28;20034;-82
2022/05/04 06:09:03;;;;;;;4.65;3.90;;;10.60;99.90;;;;;;4968723;28;20039;-80
2022/05/04 06:11:30;;;;;;;10.57;3.60;;;10.60;99.90;;;;;;4961959;28;20039;-82
2022/05/04 06:13:56;;;;;;;4.00;3.45;;;10.70;99.90;;;;;;4957444;28;20039;-79
2022/05/04 06:16:22;;;;;;;6.00;3.92;;;10.90;99.90;;;;;;4955555;28;20111;-79
2022/05/04 06:18:47;;;;;;;4.97;3.80;;;11.10;99.90;;;;;;4953674;28;20417;-79
2022/05/04 06:21:13;;;;;;;6.35;4.22;;;11.20;99.90;;;;;;4955820;28;20044;-80
2022/05/04 06:23:39;;;;;;;8.32;3.60;;;11.30;99.90;;;;;;4955235;28;20023;-78
2022/05/04 06:26:05;;;;;;;7.60;4.03;;;11.20;99.90;;;;;;4957217;28;20042;-79
2022/05/04 06:28:31;;;;;;;4.82;3.65;;;11.50;99.90;;;;;;4954440;28;20026;-79
2022/05/04 06:36:24;;;;;;;4.07;3.38;;;12.80;99.90;;;;;;4951561;28;20070;-82
2022/05/04 06:38:50;;;;;;;4.55;2.88;;;13.20;99.90;;;;;;4950892;28;20023;-80
2022/05/04 06:41:16;;;;;;;3.40;3.08;;;13.30;99.90;;;;;;4949357;28;20043;-82
2022/05/04 06:43:42;;;;;;;7.97;3.40;;;13.50;99.90;;;;;;4950612;28;20035;-83
2022/05/04 06:46:07;;;;;;;3.85;3.55;;;13.60;99.90;;;;;;4949262;28;20046;-83
2022/05/04 06:48:34;;;;;;;4.40;3.67;;;14.10;99.90;;;;;;4949565;28;20035;-83
2022/05/04 06:51:00;;;;;;;4.90;3.63;;;14.70;99.90;;;;;;4950327;28;20114;-81
2022/05/04 06:53:25;;;;;;;6.30;3.30;;;15.10;99.90;;;;;;4949331;28;20118;-80
2022/05/04 06:55:51;;;;;;;4.55;4.15;;;15.70;99.90;;;;;;4949085;28;20038;-81
2022/05/04 06:58:17;;;;;;;4.60;3.80;;;15.70;99.90;;;;;;4950297;28;20032;-81
2022/05/04 07:00:42;;;;;;;4.05;3.63;;;15.50;99.90;;;;;;4948878;28;20039;-83
2022/05/04 07:03:09;;;;;;;10.02;4.93;;;15.20;99.90;;;;;;4949372;28;20027;-84
2022/05/04 07:05:35;;;;;;;6.65;4.65;;;15.10;99.90;;;;;;4957262;28;20166;-81
2022/05/04 07:08:00;;;;;;;6.00;4.75;;;14.70;99.90;;;;;;4952535;28;20102;-83
2022/05/04 07:10:26;;;;;;;5.38;4.35;;;14.40;99.90;;;;;;4951198;28;20480;-80
2022/05/04 07:12:53;;;;;;;7.40;4.53;;;14.30;99.90;;;;;;4959497;28;20086;-80
2022/05/04 07:15:19;;;;;;;4.63;4.22;;;14.40;99.90;;;;;;4948733;28;20038;-81
2022/05/04 07:17:45;;;;;;;4.88;3.78;;;14.50;99.90;;;;;;4948940;28;20022;-84
2022/05/04 07:20:10;;;;;;;3.95;3.55;;;14.60;99.90;;;;;;4950419;28;20047;-80
2022/05/04 07:22:36;;;;;;;5.30;4.07;;;14.70;99.90;;;;;;4949834;28;20038;-82
2022/05/04 07:25:03;;;;;;;5.30;3.92;;;14.60;99.90;;;;;;4951337;28;20512;-83
2022/05/04 07:27:28;;;;;;;4.72;3.88;;;14.40;99.90;;;;;;4951704;28;20030;-81
2022/05/04 07:29:54;;;;;;;6.70;3.72;;;14.50;99.90;;;;;;4948666;28;20031;-80
2022/05/04 07:32:20;;;;;;;4.07;3.67;;;14.50;99.90;;;;;;4949804;28;20039;-80
2022/05/04 07:34:46;;;;;;;4.97;3.55;;;14.60;99.90;;;;;;4950160;28;20156;-79
2022/05/04 07:37:12;;;;;;;5.03;3.55;;;14.60;99.90;;;;;;4950036;28;20066;-82
2022/05/04 07:42:24;;;;;;;4.00;3.65;;;14.40;99.90;;;;;;4949298;28;20110;-80
2022/05/04 07:44:59;;;;;;;3.85;3.55;;;14.50;99.90;;;;;;4948227;28;20031;-81
2022/05/04 07:47:25;;;;;;;3.65;3.30;;;15.00;99.90;;;;;;4949428;28;20050;-82
2022/05/04 07:49:51;;;;;;;3.72;3.35;;;16.00;99.90;;;;;;4949656;28;20504;-81
2022/05/04 07:52:17;;;;;;;2.90;2.70;;;17.40;99.90;;;;;;4948023;28;20035;-82
2022/05/04 07:54:42;;;;;;;5.25;3.47;;;18.10;99.90;;;;;;4949123;28;20027;-81
2022/05/04 07:57:11;;;;;;;4.72;2.88;;;17.90;99.90;;;;;;4949298;28;20032;-81
2022/05/04 07:59:37;;;;;;;5.20;3.30;;;18.00;99.90;;;;;;4947273;28;20035;-81
2022/05/04 08:04:47;;;;;;;3.10;2.80;;;19.40;99.90;;;;;;4948836;28;20101;-80
2022/05/04 08:07:13;;;;;;;8.63;4.18;;;19.20;99.90;;;;;;4947925;28;20031;-80
2022/05/04 08:09:39;;;;;;;3.30;3.00;;;19.40;99.90;;;;;;4949118;28;20822;-79
2022/05/04 08:12:06;;;;;;;4.85;3.05;;;19.80;99.90;;;;;;4957129;28;20026;-80
2022/05/04 08:14:33;;;;;;;3.78;2.85;;;19.30;99.60;;;;;;4986443;28;20037;-80
2022/05/04 08:16:59;;;;;;;3.58;3.03;;;19.00;99.90;;;;;;4987734;28;20022;-82
2022/05/04 08:19:25;;;;;;;4.93;3.58;;;19.60;99.90;;;;;;4987130;28;20030;-83
2022/05/04 08:21:51;;;;;;;3.45;2.88;;;19.10;99.90;;;;;;4987753;28;20077;-80
2022/05/04 08:24:17;;;;;;;2.72;2.50;;;19.30;98.30;;;;;;4986486;28;20030;-79
2022/05/04 08:26:43;;;;;;;2.90;2.60;;;18.20;99.90;;;;;;4989132;28;20037;-79
2022/05/04 08:29:09;;;;;;;4.00;3.10;;;17.40;99.90;;;;;;4990767;28;20029;-80
2022/05/04 08:31:36;;;;;;;3.05;2.75;;;20.00;99.90;;;;;;4990526;28;20032;-79
2022/05/04 08:34:02;;;;;;;2.72;2.53;;;17.80;99.90;;;;;;4988445;28;20057;-80
2022/05/04 08:36:27;;;;;;;4.05;2.70;;;17.80;99.90;;;;;;5002648;28;20510;-81
2022/05/04 08:38:53;;;;;;;3.78;2.95;;;18.20;99.90;;;;;;4987536;28;20056;-79
2022/05/04 08:41:19;;;;;;;3.42;2.92;;;18.40;99.90;;;;;;4990341;28;20062;-80
2022/05/04 08:43:48;;;;;;;3.25;2.38;;;18.10;99.90;;;;;;4987776;28;20432;-80
2022/05/04 08:46:17;;;;;;;3.85;2.72;;;18.20;99.90;;;;;;4990403;28;20061;-80
2022/05/04 08:48:43;;;;;;;;;;;18.40;99.90;;;;;;4987685;28;20033;-80
2022/05/04 08:51:10;;;;;;;2.88;2.50;;;18.60;99.90;;;;;;4987783;28;19906;-82
2022/05/04 08:53:37;;;;;;;2.65;2.45;;;18.60;99.90;;;;;;4988673;28;20027;-84
2022/05/04 08:56:05;;;;;;;3.13;2.88;;;18.90;99.90;;;;;;4993443;28;20061;-80
2022/05/04 08:58:34;;;;;;;2.92;2.38;;;18.50;99.90;;;;;;4988008;28;20035;-80
2022/05/04 09:01:02;;;;;;;3.15;2.78;;;19.30;99.90;;;;;;4985998;28;20673;-81
2022/05/04 09:03:28;;;;;;;2.70;2.50;;;18.90;99.90;;;;;;4949761;28;20034;-81
2022/05/04 09:05:54;;;;;;;2.60;2.40;;;18.80;99.90;;;;;;4947475;28;20416;-80
2022/05/04 09:08:23;;;;;;;3.60;2.40;;;;;;;;;;4946672;28;20039;-81
2022/05/04 09:10:49;;;;;;;2.90;2.60;;;;;;;;;;4946943;28;20386;-81
2022/05/04 09:13:18;;;;;;;4.05;2.63;;;19.40;99.90;;;;;;4961816;28;20285;-80
2022/05/04 09:15:43;;;;;;;5.15;2.30;;;19.70;99.60;;;;;;4970029;28;20162;-79
2022/05/04 09:18:13;;;;;;;3.03;2.78;;;19.60;93.90;;;;;;4970130;28;20515;-81
2022/05/04 09:20:58;;;;;;;6.68;2.63;;;19.50;93.70;;;;;;4971724;28;20105;-81
2022/05/04 09:23:25;;;;;;;3.75;2.20;;;19.30;99.90;;;;;;4970229;28;20567;-80
2022/05/04 09:25:56;;;;;;;7.30;3.47;;;19.80;99.90;;;;;;4970341;28;20053;-82
2022/05/04 09:28:26;;;;;;;3.15;2.42;;;19.50;99.90;;;;;;4969529;28;20035;-82
2022/05/04 09:31:07;;;;;;;3.40;2.47;;;19.50;99.90;;;;;;4969747;28;20492;-80
2022/05/04 09:33:35;;;;;;;2.72;2.20;;;19.60;95.60;;;;;;4969567;28;20408;-79
2022/05/04 09:36:05;;;;;;;2.30;2.10;;;19.90;86.30;;;;;;4969685;28;20396;-80
2022/05/04 09:46:50;;;;;;;3.40;2.67;;;20.00;81.20;;;;;;4970952;28;20038;-80
2022/05/04 09:49:21;;;;;;;2.22;2.00;;;20.00;77.30;;;;;;4970953;28;20031;-80
2022/05/04 09:51:53;;;;;;;6.25;2.75;;;20.10;88.20;;;;;;4969366;28;20031;-81
2022/05/04 09:54:21;;;;;;;3.70;2.20;;;20.20;83.60;;;;;;4969618;28;20026;-80
2022/05/04 09:56:52;;;;;;;2.47;2.33;;;20.70;78.60;;;;;;4970786;28;20042;-80
2022/05/04 09:59:21;;;;;;;2.63;2.33;;;20.70;80.50;;;;;;4969148;28;20031;-81
2022/05/04 10:01:48;;;;;;;3.63;2.42;;;20.60;95.40;;;;;;4969396;28;20046;-80
2022/05/04 10:04:14;;;;;;;4.60;2.50;;;20.30;78.90;;;;;;4970703;28;20241;-80
2022/05/04 10:06:40;;;;;;;2.83;2.22;;;20.20;82.30;;;;;;4970362;28;20513;-81
2022/05/04 10:09:06;;;;;;;2.75;2.55;;;20.10;93.70;;;;;;4969021;28;20078;-80
2022/05/04 10:11:36;;;;;;;2.58;2.25;;;20.00;93.20;;;;;;4969107;28;20031;-80
2022/05/04 10:14:10;;;;;;;2.50;2.33;;;20.20;95.30;;;;;;4949380;29;20027;-80
2022/05/04 10:16:55;;;;;;;3.13;2.78;;;21.60;85.20;;;;;;4949538;28;20031;-80
2022/05/04 10:19:26;;;;;;;3.13;2.83;;;17.60;82.10;;;;;;4965485;28;20448;-80
2022/05/04 10:21:57;;;;;;;2.63;2.42;;;20.60;79.50;;;;;;4950233;28;20039;-79
2022/05/04 10:24:25;;;;;;;2.55;2.35;;;20.30;88.70;;;;;;4949999;28;20019;-82
2022/05/04 10:27:02;;;;;;;2.10;2.00;;;20.40;95.60;;;;;;4964776;28;20037;-81
2022/05/04 10:32:38;;;;;;;2.30;2.10;;;20.20;89.90;;;;;;4951898;29;20038;-79
2022/05/04 10:35:15;;;;;;;4.25;2.58;;;20.00;91.30;;;;;;4949770;28;20110;-79
2022/05/04 10:38:10;;;;;;;2.72;2.50;;;20.40;82.50;;;;;;4949079;29;20028;-80
2022/05/04 10:41:06;;;;;;;2.53;2.25;;;20.20;86.00;;;;;;4936216;28;20043;-74
2022/05/04 10:43:47;;;;;;;4.30;2.47;;;20.90;99.90;;;;;;4956521;28;20179;-75
2022/05/04 10:46:16;;;;;;;6.97;2.08;;;21.20;82.40;;;;;;4953778;28;20110;-74
2022/05/04 10:48:43;;;;;;;2.60;2.40;;;21.80;90.10;;;;;;4950256;28;20534;-75
2022/05/04 10:51:21;;;;;;;2.50;2.30;;;21.90;68.10;;;;;;4950148;28;20049;-74
2022/05/04 10:53:53;;;;;;;1.90;1.80;;;22.60;62.90;;;;;;4950385;28;20023;-77
2022/05/04 10:56:21;;;;;;;2.38;2.17;;;22.70;61.40;;;;;;4950126;29;20023;-74
2022/05/04 10:58:50;;;;;;;2.05;1.77;;;22.00;61.10;;;;;;4949703;28;20062;-75
2022/05/04 11:01:31;;;;;;;2.53;2.33;;;21.90;69.20;;;;;;4948729;28;20055;-75
2022/05/04 11:04:04;;;;;;;2.50;2.30;;;21.60;63.00;;;;;;4952308;28;20023;-76
2022/05/04 11:06:33;;;;;;;2.63;1.83;;;21.10;65.60;;;;;;4948242;28;20126;-78
2022/05/04 11:09:11;;;;;;;4.03;2.60;;;20.70;63.80;;;;;;4948945;29;20031;-77
2022/05/04 11:11:42;;;;;;;1.83;1.73;;;20.70;65.10;;;;;;4964764;28;20124;-77
2022/05/04 11:14:10;;;;;;;3.20;2.00;;;20.60;67.70;;;;;;4988272;28;20064;-77
2022/05/04 11:16:37;;;;;;;2.55;2.35;;;20.80;68.40;;;;;;4986665;28;20029;-79
2022/05/04 11:19:04;;;;;;;2.13;1.80;;;20.90;63.70;;;;;;4987920;28;20439;-75
2022/05/04 11:21:31;;;;;;;2.75;2.50;;;21.20;64.20;;;;;;4953637;28;20035;-77
2022/05/04 11:24:02;;;;;;;5.47;1.90;;;21.30;60.00;;;;;;4968743;28;20019;-77
2022/05/04 11:26:38;;;;;;;2.78;2.58;;;21.20;62.20;;;;;;4968542;28;20030;-77
2022/05/04 11:29:23;;;;;;;5.15;2.22;;;21.20;62.20;;;;;;4968829;28;20054;-77
2022/05/04 11:31:56;;;;;;;2.05;1.80;;;21.40;60.40;;;;;;4968547;28;20023;-78
2022/05/04 11:34:31;;;;;;;2.15;1.95;;;21.60;60.00;;;;;;4968622;28;20031;-77
2022/05/04 11:37:01;;;;;;;2.70;2.00;;;21.70;59.40;;;;;;4986252;28;20030;-77
2022/05/04 11:39:28;;;;;;;2.00;1.90;;;21.40;60.50;;;;;;4987558;28;20464;-77
2022/05/04 11:41:56;;;;;;;2.00;1.90;;;20.90;60.70;;;;;;4987495;28;20062;-77
2022/05/04 11:44:24;;;;;;;3.25;2.00;;;20.90;57.90;;;;;;4987595;28;20030;-78
2022/05/04 11:46:51;;;;;;;2.92;1.70;;;20.60;60.10;;;;;;4987595;28;20107;-77
2022/05/04 11:49:18;;;;;;;4.50;2.33;;;21.10;62.20;;;;;;4987885;28;20455;-78
2022/05/04 11:51:44;;;;;;;1.88;1.77;;;21.30;64.90;;;;;;4985058;28;20026;-78
2022/05/04 11:54:10;;;;;;;2.10;1.90;;;21.40;64.90;;;;;;4966947;28;20388;-76
2022/05/04 11:56:36;;;;;;;2.50;2.00;;;21.20;69.60;;;;;;4966854;28;20105;-77
2022/05/04 11:59:02;;;;;;;2.05;1.83;;;20.80;77.30;;;;;;4981767;28;20442;-77
2022/05/04 12:01:29;;;;;;;2.58;2.38;;;20.40;98.50;;;;;;4968241;28;20589;-76
2022/05/04 12:03:55;;;;;;;2.00;1.90;;;20.10;97.70;;;;;;4968276;28;20495;-77
2022/05/04 12:06:22;;;;;;;2.28;1.83;;;19.90;99.90;;;;;;4967912;28;20019;-76
2022/05/04 12:08:48;;;;;;;3.95;1.92;;;19.60;99.90;;;;;;4968018;28;20823;-76
2022/05/04 12:11:15;;;;;;;2.95;2.42;;;19.30;99.90;;;;;;4961749;28;20022;-78
2022/05/04 12:13:42;;;;;;;3.00;2.80;;;18.80;99.90;;;;;;4983913;28;20026;-78
2022/05/04 12:16:09;;;;;;;4.25;2.50;;;18.20;99.90;;;;;;4985798;28;20030;-77
2022/05/04 12:18:37;;;;;;;3.30;2.42;;;18.00;99.90;;;;;;4987343;28;20026;-77
2022/05/04 12:21:10;;;;;;;5.35;3.22;;;17.70;99.90;;;;;;4986991;28;20257;-77
2022/05/04 12:23:40;;;;;;;2.67;2.45;;;17.50;99.90;;;;;;4985845;28;20026;-76
2022/05/04 12:26:07;;;;;;;3.53;2.45;;;17.20;99.90;;;;;;4986618;28;20267;-76
2022/05/04 12:28:34;;;;;;;7.13;2.60;;;17.10;99.90;;;;;;4986678;28;20022;-76
2022/05/04 12:33:48;;;;;;;1.67;1.58;;;16.40;99.90;;;;;;4990874;28;20045;-76
2022/05/04 12:36:15;;;;;;;2.28;1.50;;;16.40;99.90;;;;;;4991454;28;20041;-77
2022/05/04 12:38:47;;;;;;;2.00;1.50;;;16.20;99.90;;;;;;4987131;28;20034;-80
2022/05/04 12:41:16;;;;;;;3.28;1.52;;;16.10;99.90;;;;;;4987750;28;20092;-79
2022/05/04 12:43:42;;;;;;;1.70;1.60;;;16.00;99.90;;;;;;4987234;28;20669;-79
2022/05/04 12:46:12;;;;;;;2.38;1.75;;;15.90;99.90;;;;;;4970122;28;20046;-79
2022/05/04 12:48:43;;;;;;;1.83;1.70;;;15.40;99.90;;;;;;4947906;28;20484;-79
2022/05/04 12:51:09;;;;;;;1.45;1.33;;;15.20;99.90;;;;;;4963390;28;20045;-79
2022/05/04 12:53:39;;;;;;;1.77;1.65;;;15.00;99.90;;;;;;4963780;28;20023;-78
2022/05/04 12:58:52;;;;;;;1.50;0.95;;;14.60;99.90;;;;;;4965555;28;20034;-81
2022/05/04 13:01:26;;;;;;;2.13;1.40;;;14.40;99.90;;;;;;4974214;28;20007;-82
2022/05/04 13:03:52;;;;;;;2.58;1.23;;;14.30;99.90;;;;;;4954781;28;20026;-81
2022/05/04 13:06:19;;;;;;;3.97;1.60;;;14.10;99.90;;;;;;4955273;28;20150;-79
2022/05/04 13:08:46;;;;;;;3.33;1.20;;;13.70;99.90;;;;;;4947576;28;20031;-78
2022/05/04 13:11:12;;;;;;;1.73;1.50;;;13.90;99.90;;;;;;4948953;28;20026;-78
2022/05/04 13:13:38;;;;;;;2.28;1.70;;;14.20;99.90;;;;;;4980972;28;20030;-79
2022/05/04 13:16:03;;;;;;;3.97;2.17;;;14.70;99.90;;;;;;4987525;28;20014;-79
2022/05/04 13:18:29;;;;;;;6.53;3.00;;;15.20;99.90;;;;;;4985547;28;20034;-79
2022/05/04 13:20:55;;;;;;;4.57;2.70;;;15.70;99.90;;;;;;4984707;28;20048;-81
2022/05/04 13:23:21;;;;;;;2.28;1.80;;;16.60;99.90;;;;;;5000911;28;20515;-80
2022/05/04 13:25:46;;;;;;;1.92;1.83;;;18.00;99.90;;;;;;4984839;28;20022;-80
2022/05/04 13:28:12;;;;;;;2.50;1.60;;;18.80;99.90;;;;;;5001120;28;20034;-78
2022/05/04 13:30:38;;;;;;;3.72;1.50;;;19.90;99.90;;;;;;4987419;28;20329;-81
2022/05/04 13:33:04;;;;;;;4.78;2.33;;;20.50;99.90;;;;;;4986432;28;20026;-79